createdAt,value
2022-10-16T00:14:14.780Z,42.744
2022-10-16T00:29:17.296Z,43.889
2022-10-16T00:44:19.638Z,45.099
2022-10-16T00:59:22.110Z,46.552
2022-10-16T01:14:24.393Z,46.475
2022-10-16T01:29:26.695Z,47.573
2022-10-16T01:44:29.079Z,48.593
2022-10-16T01:59:31.416Z,49.651
2022-10-16T02:14:33.705Z,49.384
2022-10-16T02:29:36.068Z,51.642
2022-10-16T02:44:38.296Z,53.705
2022-10-16T02:59:40.574Z,54.143
2022-10-16T03:14:42.885Z,54.77
2022-10-16T03:29:45.185Z,56.443
2022-10-16T03:44:47.447Z,57.028
2022-10-16T03:59:49.715Z,57.87
2022-10-16T04:14:52.084Z,55.562
2022-10-16T04:29:54.355Z,55.2
2022-10-16T04:44:56.806Z,58.016
2022-10-16T04:59:59.148Z,58.361
2022-10-16T05:15:01.410Z,57.091
2022-10-16T05:30:04.850Z,57.565
2022-10-16T05:45:08.858Z,59.465
2022-10-16T06:00:11.144Z,58.302
2022-10-16T06:15:13.721Z,57.331
2022-10-16T06:30:16.033Z,58.578
2022-10-16T06:45:18.495Z,58.8
2022-10-16T07:00:20.770Z,59.536
2022-10-16T07:15:23.087Z,57.796
2022-10-16T07:30:25.587Z,59.055
2022-10-16T07:45:27.826Z,57.733
2022-10-16T08:00:30.138Z,59.701
2022-10-16T08:15:32.688Z,59.503
2022-10-16T08:30:35.113Z,60.201
2022-10-16T08:45:37.457Z,60.115
2022-10-16T09:00:39.894Z,58.017
2022-10-16T09:15:42.191Z,57.817
2022-10-16T09:30:44.489Z,59.212
2022-10-16T09:45:46.800Z,59.92
2022-10-16T10:00:49.085Z,60.2
2022-10-16T10:15:51.361Z,62.264
2022-10-16T10:30:53.656Z,61.503
2022-10-16T10:45:56.977Z,60.895
2022-10-16T11:00:59.218Z,62.291
2022-10-16T11:16:01.386Z,63.393
2022-10-16T11:31:03.716Z,64.658
2022-10-16T11:46:07.841Z,63.383
2022-10-16T12:01:12.529Z,61.931
2022-10-16T12:16:14.796Z,61.046
2022-10-16T12:31:17.022Z,61.02
2022-10-16T12:46:19.220Z,63.979
2022-10-16T13:01:21.441Z,61.792
2022-10-16T13:16:23.659Z,62.394
2022-10-16T13:31:25.847Z,61.886
2022-10-16T13:46:28.171Z,63.011
2022-10-16T14:01:32.678Z,64.581
2022-10-16T14:16:35.419Z,63.006
2022-10-16T14:31:37.619Z,62.324
2022-10-16T14:46:39.832Z,62.885
2022-10-16T15:01:42.131Z,64.68
2022-10-16T15:16:44.319Z,61.283
2022-10-16T15:31:46.624Z,55.513
2022-10-16T15:46:48.865Z,47.846
2022-10-16T16:01:51.123Z,54.722
2022-10-16T16:16:53.374Z,62.403
2022-10-16T16:31:55.588Z,40.474
2022-10-16T16:46:57.969Z,44.199
2022-10-16T17:02:00.232Z,50.247
2022-10-16T17:17:02.495Z,43.222
2022-10-16T17:32:04.714Z,50.818
2022-10-16T17:47:06.948Z,54.052
2022-10-16T18:02:09.208Z,53.864
2022-10-16T18:17:11.486Z,51.804
2022-10-16T18:32:13.680Z,51.95
2022-10-16T18:47:15.877Z,52.381
2022-10-16T19:02:18.101Z,50.99
2022-10-16T19:17:20.588Z,50.019
2022-10-16T19:32:22.910Z,48.656
2022-10-16T19:47:25.251Z,45.324
2022-10-16T20:02:27.981Z,44.894
2022-10-16T20:17:30.882Z,43.751
2022-10-16T20:32:33.404Z,41.746
2022-10-16T20:47:35.727Z,42.863
2022-10-16T21:02:38.008Z,42.023
2022-10-16T21:17:40.292Z,41.867
2022-10-16T21:32:42.678Z,41.964
2022-10-16T21:47:45.031Z,42.393
2022-10-16T22:02:47.407Z,41.268
2022-10-16T22:17:49.821Z,39.128
2022-10-16T22:32:52.218Z,38.275
2022-10-16T22:47:54.511Z,39.304
2022-10-16T23:02:56.964Z,39.763
2022-10-16T23:17:59.307Z,42.146
2022-10-16T23:33:01.588Z,41.987
2022-10-16T23:48:03.834Z,43.547
